createdAt,value
2022-10-28T00:00:51.185Z,14.15
2022-10-28T00:03:33.628Z,14.14
2022-10-28T00:06:14.976Z,14.13
2022-10-28T00:08:55.300Z,14.13
2022-10-28T00:11:36.698Z,14.12
2022-10-28T00:14:18.105Z,14.11
2022-10-28T00:17:01.557Z,14.08
2022-10-28T00:19:47.019Z,14.13
2022-10-28T00:22:27.103Z,14.13
2022-10-28T00:25:24.811Z,14.15
2022-10-28T00:28:02.962Z,14.16
2022-10-28T00:30:45.086Z,14.18
2022-10-28T00:33:26.104Z,14.18
2022-10-28T00:36:09.709Z,14.18
2022-10-28T00:38:49.068Z,14.21
2022-10-28T00:41:33.180Z,14.25
2022-10-28T00:44:30.921Z,14.41
2022-10-28T00:47:11.569Z,14.52
2022-10-28T00:49:52.233Z,14.64
2022-10-28T00:52:45.722Z,14.81
2022-10-28T00:55:28.743Z,14.90
2022-10-28T00:58:11.908Z,15.04
2022-10-28T01:00:52.827Z,15.19
2022-10-28T01:03:34.196Z,15.19
2022-10-28T01:06:12.112Z,15.15
2022-10-28T01:08:56.073Z,15.15
2022-10-28T01:11:44.695Z,15.18
2022-10-28T01:14:28.923Z,15.21
2022-10-28T01:17:22.590Z,15.43
2022-10-28T01:20:19.929Z,15.41
2022-10-28T01:22:59.740Z,15.43
2022-10-28T01:26:06.485Z,15.42
2022-10-28T01:28:54.995Z,15.46
2022-10-28T01:31:38.536Z,15.51
2022-10-28T01:34:19.755Z,15.58
2022-10-28T01:37:02.945Z,15.73
2022-10-28T01:39:45.269Z,15.94
2022-10-28T01:42:45.465Z,15.93
2022-10-28T01:45:27.741Z,15.93
2022-10-28T01:48:09.687Z,15.91
2022-10-28T01:50:52.228Z,15.92
2022-10-28T01:53:33.022Z,15.88
2022-10-28T01:56:15.074Z,15.89
2022-10-28T01:58:55.219Z,15.93
2022-10-28T02:01:37.007Z,16.05
2022-10-28T02:04:18.940Z,16.05
2022-10-28T02:06:59.851Z,16.11
2022-10-28T02:09:47.795Z,16.13
2022-10-28T02:12:29.083Z,16.14
2022-10-28T02:15:15.948Z,16.13
2022-10-28T02:17:58.042Z,16.12
2022-10-28T02:20:41.928Z,16.09
2022-10-28T02:23:27.723Z,16.00
2022-10-28T02:26:11.324Z,15.93
2022-10-28T02:29:04.433Z,15.87
2022-10-28T02:31:46.064Z,15.80
2022-10-28T02:34:26.845Z,15.77
2022-10-28T02:37:07.784Z,15.70
2022-10-28T02:39:50.402Z,15.67
2022-10-28T02:42:30.558Z,15.60
2022-10-28T02:45:20.317Z,15.58
2022-10-28T02:48:02.659Z,15.58
2022-10-28T02:50:44.825Z,15.62
2022-10-28T02:53:29.633Z,15.68
2022-10-28T02:56:10.123Z,15.71
2022-10-28T02:58:51.504Z,15.77
2022-10-28T03:01:44.714Z,15.80
2022-10-28T03:04:27.100Z,15.84
2022-10-28T03:07:07.524Z,15.84
2022-10-28T03:09:48.830Z,15.88
2022-10-28T03:12:28.853Z,15.87
2022-10-28T03:15:10.745Z,15.89
2022-10-28T03:17:51.831Z,15.90
2022-10-28T03:20:32.883Z,15.89
2022-10-28T03:23:12.661Z,15.90
2022-10-28T03:25:52.475Z,15.89
2022-10-28T03:28:30.367Z,15.92
2022-10-28T03:31:10.530Z,15.90
2022-10-28T03:34:11.103Z,15.91
2022-10-28T03:36:49.010Z,15.91
2022-10-28T03:39:30.621Z,15.88
2022-10-28T03:42:10.609Z,15.79
2022-10-28T03:44:52.157Z,15.72
2022-10-28T03:47:33.393Z,15.68
2022-10-28T03:50:14.737Z,15.62
2022-10-28T03:52:54.632Z,15.54
2022-10-28T03:55:36.067Z,15.48
2022-10-28T03:58:57.764Z,15.40
2022-10-28T04:01:35.931Z,15.32
2022-10-28T04:04:16.382Z,15.24
2022-10-28T04:06:57.384Z,15.14
2022-10-28T04:09:37.181Z,15.08
2022-10-28T04:12:19.195Z,15.03
2022-10-28T04:15:02.378Z,15.00
2022-10-28T04:17:43.021Z,14.93
2022-10-28T04:20:22.925Z,14.86
2022-10-28T04:23:02.594Z,14.76
2022-10-28T04:25:44.030Z,14.69
2022-10-28T04:28:24.952Z,14.64
2022-10-28T04:31:07.306Z,14.57
2022-10-28T04:33:50.257Z,14.53
2022-10-28T04:36:31.255Z,14.44
2022-10-28T04:39:11.138Z,14.40
2022-10-28T04:41:52.484Z,14.33
2022-10-28T04:44:30.333Z,14.31
2022-10-28T04:47:10.752Z,14.29
2022-10-28T04:49:51.935Z,14.23
2022-10-28T04:52:35.326Z,14.19
2022-10-28T04:55:18.394Z,14.16
2022-10-28T04:58:11.322Z,14.16
2022-10-28T05:01:07.481Z,14.10
2022-10-28T05:03:49.902Z,14.08
2022-10-28T05:06:28.352Z,14.05
2022-10-28T05:09:50.709Z,14.04
2022-10-28T05:12:30.429Z,14.00
2022-10-28T05:15:11.201Z,13.98
2022-10-28T05:17:52.036Z,13.94
2022-10-28T05:20:33.116Z,13.90
2022-10-28T05:23:12.892Z,13.86
2022-10-28T05:25:52.790Z,13.83
2022-10-28T05:28:34.194Z,13.78
2022-10-28T05:31:15.713Z,13.76
2022-10-28T05:33:57.392Z,13.72
2022-10-28T05:36:38.513Z,13.68
2022-10-28T05:39:19.758Z,13.66
2022-10-28T05:42:01.275Z,13.63
2022-10-28T05:44:44.594Z,13.57
2022-10-28T05:47:25.643Z,13.53
2022-10-28T05:50:09.542Z,13.51
2022-10-28T05:52:50.413Z,13.46
2022-10-28T05:55:32.073Z,13.46
2022-10-28T05:58:14.015Z,13.42
2022-10-28T06:00:54.192Z,13.39
2022-10-28T06:03:35.284Z,13.37
2022-10-28T06:06:15.418Z,13.41
2022-10-28T06:08:58.123Z,13.38
2022-10-28T06:11:38.793Z,13.42
2022-10-28T06:14:22.033Z,13.42
2022-10-28T06:17:00.785Z,13.45
2022-10-28T06:19:40.901Z,13.51
2022-10-28T06:22:21.565Z,13.77
2022-10-28T06:25:02.287Z,13.82
2022-10-28T06:27:43.590Z,13.87
2022-10-28T06:30:27.133Z,13.84
2022-10-28T06:33:10.001Z,14.00
2022-10-28T06:35:57.379Z,13.97
2022-10-28T06:38:37.140Z,13.98
2022-10-28T06:41:17.986Z,13.98
2022-10-28T06:43:58.388Z,14.01
2022-10-28T06:46:39.731Z,14.02
2022-10-28T06:49:17.566Z,14.03
2022-10-28T06:51:55.839Z,14.23
2022-10-28T06:54:37.924Z,14.37
2022-10-28T06:57:17.128Z,14.47
2022-10-28T06:59:58.130Z,14.57
2022-10-28T07:02:42.746Z,14.54
2022-10-28T07:05:27.518Z,14.85
2022-10-28T07:08:10.835Z,14.97
2022-10-28T07:10:56.248Z,14.96
2022-10-28T07:13:39.091Z,15.10
2022-10-28T07:16:18.073Z,15.19
2022-10-28T07:19:10.015Z,15.17
2022-10-28T07:21:49.804Z,15.22
2022-10-28T07:24:29.627Z,15.18
2022-10-28T07:27:11.434Z,15.13
2022-10-28T07:30:12.690Z,15.12
2022-10-28T07:32:53.196Z,15.13
2022-10-28T07:35:34.476Z,15.28
2022-10-28T07:38:12.479Z,15.25
2022-10-28T07:40:52.558Z,15.35
2022-10-28T07:43:35.852Z,15.47
2022-10-28T07:46:17.206Z,15.48
2022-10-28T07:48:58.319Z,15.78
2022-10-28T07:51:38.087Z,15.81
2022-10-28T07:54:20.640Z,16.14
2022-10-28T07:57:00.972Z,16.42
2022-10-28T07:59:42.305Z,16.84
2022-10-28T08:02:23.115Z,17.03
2022-10-28T08:05:07.020Z,17.19
2022-10-28T08:07:47.855Z,17.30
2022-10-28T08:10:28.624Z,17.40
2022-10-28T08:13:10.880Z,17.53
2022-10-28T08:15:53.513Z,17.56
2022-10-28T08:18:33.755Z,17.70
2022-10-28T08:21:13.865Z,17.75
2022-10-28T08:23:55.616Z,17.89
2022-10-28T08:26:38.469Z,17.99
2022-10-28T08:29:19.597Z,17.98
2022-10-28T08:32:03.782Z,17.94
2022-10-28T08:34:45.975Z,17.97
2022-10-28T08:37:27.093Z,17.93
2022-10-28T08:40:13.097Z,17.88
2022-10-28T08:42:55.469Z,17.90
2022-10-28T08:45:38.289Z,17.83
2022-10-28T08:48:20.488Z,17.82
2022-10-28T08:51:17.557Z,17.90
2022-10-28T08:54:12.910Z,17.96
2022-10-28T08:56:54.928Z,17.99
2022-10-28T08:59:59.969Z,18.20
2022-10-28T09:02:46.190Z,18.16
2022-10-28T09:05:27.945Z,18.19
2022-10-28T09:08:09.941Z,18.22
2022-10-28T09:11:09.580Z,18.23
2022-10-28T09:13:54.383Z,18.33
2022-10-28T09:16:37.421Z,18.41
2022-10-28T09:19:17.426Z,18.62
2022-10-28T09:22:00.695Z,18.73
2022-10-28T09:24:42.861Z,18.84
2022-10-28T09:27:32.531Z,19.12
2022-10-28T09:30:29.463Z,19.26
2022-10-28T09:33:22.189Z,19.32
2022-10-28T09:36:00.691Z,19.46
2022-10-28T09:38:40.656Z,19.60
2022-10-28T09:41:21.921Z,19.76
2022-10-28T09:44:04.612Z,19.98
2022-10-28T09:46:44.969Z,20.08
2022-10-28T09:49:27.340Z,20.31
2022-10-28T09:52:15.312Z,20.39
2022-10-28T09:54:59.167Z,20.64
2022-10-28T09:57:40.063Z,20.78
2022-10-28T10:00:33.775Z,21.00
2022-10-28T10:03:14.971Z,21.21
2022-10-28T10:05:57.007Z,21.45
2022-10-28T10:08:37.596Z,21.68
2022-10-28T10:11:18.878Z,21.87
2022-10-28T10:13:56.860Z,22.09
2022-10-28T10:16:40.802Z,22.27
2022-10-28T10:19:23.618Z,22.55
2022-10-28T10:22:30.253Z,22.81
2022-10-28T10:25:24.245Z,23.02
2022-10-28T10:28:04.989Z,23.33
2022-10-28T10:30:47.753Z,23.67
2022-10-28T10:33:31.887Z,23.91
2022-10-28T10:36:15.902Z,24.14
2022-10-28T10:38:56.910Z,24.13
2022-10-28T10:41:38.147Z,24.03
2022-10-28T10:44:30.771Z,24.32
2022-10-28T10:47:19.643Z,24.30
2022-10-28T10:50:16.859Z,24.44
2022-10-28T10:52:58.357Z,24.52
2022-10-28T10:55:40.622Z,24.53
2022-10-28T10:58:22.402Z,24.54
2022-10-28T11:01:05.179Z,24.70
2022-10-28T11:03:48.582Z,24.71
2022-10-28T11:06:30.260Z,24.95
2022-10-28T11:09:19.197Z,25.11
2022-10-28T11:11:59.766Z,25.15
2022-10-28T11:14:40.925Z,25.37
2022-10-28T11:17:24.622Z,25.50
2022-10-28T11:20:24.810Z,25.49
2022-10-28T11:23:09.953Z,25.65
2022-10-28T11:25:49.167Z,25.54
2022-10-28T11:28:42.509Z,25.76
2022-10-28T11:31:28.431Z,25.60
2022-10-28T11:34:14.639Z,25.80
2022-10-28T11:36:57.254Z,25.83
2022-10-28T11:39:40.750Z,25.78
2022-10-28T11:42:23.446Z,25.99
2022-10-28T11:45:07.194Z,26.14
2022-10-28T11:47:51.500Z,26.16
2022-10-28T11:50:36.529Z,26.01
2022-10-28T11:53:33.239Z,25.93
2022-10-28T11:56:17.099Z,26.00
2022-10-28T11:59:02.331Z,25.88
2022-10-28T12:01:45.744Z,25.87
2022-10-28T12:04:28.655Z,25.84
2022-10-28T12:07:29.067Z,26.04
2022-10-28T12:10:29.719Z,26.12
2022-10-28T12:13:10.904Z,26.04
2022-10-28T12:15:53.515Z,26.21
2022-10-28T12:18:33.592Z,26.29
2022-10-28T12:21:16.157Z,26.39
2022-10-28T12:23:54.390Z,26.35
2022-10-28T12:26:36.006Z,26.34
2022-10-28T12:29:17.368Z,26.17
2022-10-28T12:31:58.320Z,25.93
2022-10-28T12:34:39.715Z,25.89
2022-10-28T12:37:19.288Z,25.85
2022-10-28T12:40:00.571Z,25.78
2022-10-28T12:42:42.333Z,25.96
2022-10-28T12:45:22.817Z,25.86
2022-10-28T12:48:05.695Z,25.95
2022-10-28T12:50:47.540Z,25.95
2022-10-28T12:53:31.862Z,25.98
2022-10-28T12:56:14.803Z,26.03
2022-10-28T12:58:59.664Z,26.00
2022-10-28T13:01:38.935Z,26.00
2022-10-28T13:04:18.938Z,26.01
2022-10-28T13:07:02.939Z,25.95
2022-10-28T13:09:45.465Z,25.81
2022-10-28T13:12:49.041Z,25.59
2022-10-28T13:15:41.827Z,25.59
2022-10-28T13:18:43.510Z,25.45
2022-10-28T13:21:25.831Z,25.33
2022-10-28T13:24:07.477Z,25.16
2022-10-28T13:26:50.419Z,25.04
2022-10-28T13:29:33.586Z,24.94
2022-10-28T13:32:25.823Z,24.82
2022-10-28T13:35:26.430Z,24.69
2022-10-28T13:38:10.612Z,24.56
2022-10-28T13:41:08.215Z,24.34
2022-10-28T13:43:59.533Z,24.24
2022-10-28T13:46:56.003Z,24.20
2022-10-28T13:49:36.657Z,24.05
2022-10-28T13:52:21.095Z,24.03
2022-10-28T13:55:04.448Z,23.95
2022-10-28T13:57:44.464Z,23.83
2022-10-28T14:00:37.088Z,23.67
2022-10-28T14:03:20.489Z,23.60
2022-10-28T14:06:03.328Z,23.48
2022-10-28T14:08:44.906Z,23.51
2022-10-28T14:11:25.664Z,23.43
2022-10-28T14:14:13.824Z,23.29
2022-10-28T14:16:54.810Z,23.31
2022-10-28T14:19:39.917Z,23.22
2022-10-28T14:22:29.059Z,23.07
2022-10-28T14:25:38.979Z,22.90
2022-10-28T14:28:39.662Z,22.79
2022-10-28T14:31:29.502Z,22.73
2022-10-28T14:34:27.247Z,22.63
2022-10-28T14:37:12.207Z,22.51
2022-10-28T14:39:56.531Z,22.35
2022-10-28T14:42:56.145Z,22.40
2022-10-28T14:45:37.631Z,22.24
2022-10-28T14:48:23.370Z,22.24
2022-10-28T14:51:06.064Z,22.05
2022-10-28T14:53:47.010Z,22.07
2022-10-28T14:56:27.108Z,21.85
2022-10-28T14:59:16.265Z,21.91
2022-10-28T15:02:00.354Z,21.81
2022-10-28T15:05:01.631Z,21.77
2022-10-28T15:07:42.776Z,21.64
2022-10-28T15:10:23.610Z,21.59
2022-10-28T15:13:04.545Z,21.50
2022-10-28T15:15:51.923Z,21.37
2022-10-28T15:18:33.231Z,21.29
2022-10-28T15:21:16.918Z,21.28
2022-10-28T15:24:01.673Z,21.17
2022-10-28T15:26:42.266Z,21.04
2022-10-28T15:29:22.074Z,20.88
2022-10-28T15:32:05.384Z,20.74
2022-10-28T15:34:46.581Z,20.63
2022-10-28T15:37:29.801Z,20.51
2022-10-28T15:40:19.537Z,20.35
2022-10-28T15:43:02.630Z,20.23
2022-10-28T15:45:43.314Z,20.14
2022-10-28T15:48:24.045Z,20.03
2022-10-28T15:51:14.418Z,19.90
2022-10-28T15:53:57.665Z,19.80
2022-10-28T15:56:39.416Z,19.66
2022-10-28T15:59:21.171Z,19.59
2022-10-28T16:02:01.623Z,19.53
2022-10-28T16:04:45.456Z,19.53
2022-10-28T16:07:25.815Z,19.54
2022-10-28T16:10:14.320Z,19.57
2022-10-28T16:12:57.109Z,19.62
2022-10-28T16:15:38.054Z,19.60
2022-10-28T16:18:17.846Z,19.57
2022-10-28T16:21:19.020Z,19.56
2022-10-28T16:23:58.954Z,19.53
2022-10-28T16:26:41.775Z,19.48
2022-10-28T16:29:22.640Z,19.41
2022-10-28T16:32:00.577Z,19.33
2022-10-28T16:34:40.853Z,19.28
2022-10-28T16:37:34.013Z,19.22
2022-10-28T16:40:37.561Z,19.15
2022-10-28T16:44:00.182Z,19.09
2022-10-28T16:46:58.474Z,19.00
2022-10-28T16:49:41.703Z,18.97
2022-10-28T16:52:23.978Z,18.92
2022-10-28T16:55:04.851Z,18.86
2022-10-28T16:57:48.688Z,18.85
2022-10-28T17:00:29.116Z,18.83
2022-10-28T17:03:14.228Z,18.79
2022-10-28T17:05:54.984Z,18.71
2022-10-28T17:09:02.377Z,18.70
2022-10-28T17:11:43.933Z,18.70
2022-10-28T17:14:25.369Z,18.70
2022-10-28T17:17:06.846Z,18.67
2022-10-28T17:19:50.284Z,18.70
2022-10-28T17:22:31.509Z,18.77
2022-10-28T17:25:26.372Z,18.70
2022-10-28T17:28:07.366Z,18.71
2022-10-28T17:30:47.214Z,18.68
2022-10-28T17:33:28.630Z,18.65
2022-10-28T17:36:29.174Z,18.58
2022-10-28T17:39:13.653Z,18.55
2022-10-28T17:41:57.266Z,18.56
2022-10-28T17:44:36.642Z,18.53
2022-10-28T17:47:20.150Z,18.58
2022-10-28T17:50:01.163Z,18.58
2022-10-28T17:52:42.456Z,18.64
2022-10-28T17:55:23.934Z,18.59
2022-10-28T17:58:05.386Z,18.55
2022-10-28T18:01:06.402Z,18.51
2022-10-28T18:03:59.135Z,18.53
2022-10-28T18:06:40.508Z,18.52
2022-10-28T18:09:23.848Z,18.55
2022-10-28T18:12:28.147Z,18.52
2022-10-28T18:15:48.997Z,18.51
2022-10-28T18:18:29.080Z,18.48
2022-10-28T18:21:10.866Z,18.53
2022-10-28T18:24:34.271Z,18.51
2022-10-28T18:27:15.805Z,18.54
2022-10-28T18:29:56.855Z,18.56
2022-10-28T18:32:38.818Z,18.61
2022-10-28T18:35:19.688Z,18.59
2022-10-28T18:38:03.083Z,18.63
2022-10-28T18:40:48.193Z,18.67
2022-10-28T18:43:29.746Z,18.71
2022-10-28T18:46:15.193Z,18.75
2022-10-28T18:49:13.631Z,18.79
2022-10-28T18:51:56.134Z,18.75
2022-10-28T18:54:36.972Z,18.69
2022-10-28T18:57:19.224Z,18.66
2022-10-28T19:00:18.848Z,18.59
2022-10-28T19:03:02.532Z,18.50
2022-10-28T19:05:46.100Z,18.48
2022-10-28T19:08:24.429Z,18.44
2022-10-28T19:11:07.882Z,18.41
2022-10-28T19:13:49.232Z,18.38
2022-10-28T19:16:31.021Z,18.38
2022-10-28T19:19:09.965Z,18.37
2022-10-28T19:21:51.127Z,18.34
2022-10-28T19:24:36.350Z,18.34
2022-10-28T19:27:19.719Z,18.28
2022-10-28T19:30:06.619Z,18.28
2022-10-28T19:32:50.089Z,18.31
2022-10-28T19:35:29.588Z,18.31
2022-10-28T19:38:09.680Z,18.26
2022-10-28T19:40:49.124Z,18.24
2022-10-28T19:43:41.241Z,18.22
2022-10-28T19:46:27.170Z,18.14
2022-10-28T19:49:07.231Z,18.13
2022-10-28T19:51:53.595Z,18.05
2022-10-28T19:54:34.702Z,18.04
2022-10-28T19:57:14.662Z,17.98
2022-10-28T20:00:06.720Z,17.89
2022-10-28T20:02:51.733Z,17.85
2022-10-28T20:05:33.569Z,17.80
2022-10-28T20:08:17.136Z,17.73
2022-10-28T20:11:01.299Z,17.67
2022-10-28T20:13:40.661Z,17.61
2022-10-28T20:16:24.580Z,17.60
2022-10-28T20:19:14.998Z,17.56
2022-10-28T20:21:56.081Z,17.53
2022-10-28T20:24:35.951Z,17.48
2022-10-28T20:27:15.783Z,17.46
2022-10-28T20:29:59.647Z,17.40
2022-10-28T20:32:40.416Z,17.36
2022-10-28T20:35:41.251Z,17.32
2022-10-28T20:38:41.662Z,17.31
2022-10-28T20:41:23.158Z,17.27
2022-10-28T20:44:04.695Z,17.24
2022-10-28T20:46:50.389Z,17.22
2022-10-28T20:49:30.233Z,17.20
2022-10-28T20:52:12.686Z,17.17
2022-10-28T20:54:53.034Z,17.16
2022-10-28T20:57:30.953Z,17.15
2022-10-28T21:00:12.097Z,17.10
2022-10-28T21:02:52.649Z,17.11
2022-10-28T21:05:33.967Z,17.11
2022-10-28T21:08:19.596Z,17.10
2022-10-28T21:11:03.362Z,17.07
2022-10-28T21:13:45.438Z,17.04
2022-10-28T21:16:28.405Z,17.03
2022-10-28T21:19:11.057Z,17.03
2022-10-28T21:21:50.251Z,17.02
2022-10-28T21:24:31.419Z,17.01
2022-10-28T21:27:11.665Z,16.98
2022-10-28T21:30:04.648Z,16.94
2022-10-28T21:32:46.648Z,16.96
2022-10-28T21:35:27.587Z,16.95
2022-10-28T21:38:12.924Z,16.93
2022-10-28T21:41:00.401Z,16.92
2022-10-28T21:43:43.996Z,16.90
2022-10-28T21:46:24.464Z,16.88
2022-10-28T21:49:05.837Z,16.84
2022-10-28T21:51:45.238Z,16.81
2022-10-28T21:54:38.850Z,16.75
2022-10-28T21:57:20.639Z,16.70
2022-10-28T22:00:04.095Z,16.67
2022-10-28T22:02:54.265Z,16.62
2022-10-28T22:05:35.561Z,16.54
2022-10-28T22:08:15.463Z,16.50
2022-10-28T22:11:00.527Z,16.45
2022-10-28T22:13:41.468Z,16.40
2022-10-28T22:16:22.837Z,16.35
2022-10-28T22:19:01.279Z,16.30
2022-10-28T22:21:43.390Z,16.23
2022-10-28T22:24:25.927Z,16.18
2022-10-28T22:27:08.915Z,16.10
2022-10-28T22:29:47.963Z,16.04
2022-10-28T22:32:28.052Z,16.00
2022-10-28T22:35:08.946Z,15.95
2022-10-28T22:37:49.429Z,15.90
2022-10-28T22:40:30.676Z,15.88
2022-10-28T22:43:31.327Z,15.85
2022-10-28T22:46:13.217Z,15.83
2022-10-28T22:48:56.203Z,15.83
2022-10-28T22:51:37.141Z,15.81
2022-10-28T22:54:15.100Z,15.80
2022-10-28T22:56:55.144Z,15.82
2022-10-28T22:59:36.912Z,15.81
2022-10-28T23:02:18.080Z,15.83
2022-10-28T23:04:59.326Z,15.84
2022-10-28T23:07:39.152Z,15.82
2022-10-28T23:10:17.195Z,15.80
2022-10-28T23:13:00.503Z,15.79
2022-10-28T23:15:43.756Z,15.80
2022-10-28T23:18:28.542Z,15.81
2022-10-28T23:21:25.956Z,15.78
2022-10-28T23:24:06.482Z,15.78
2022-10-28T23:26:47.743Z,15.79
2022-10-28T23:29:29.818Z,15.81
2022-10-28T23:32:08.350Z,15.86
2022-10-28T23:34:48.521Z,15.83
2022-10-28T23:37:29.895Z,15.81
2022-10-28T23:40:13.541Z,15.83
2022-10-28T23:43:37.708Z,15.83
2022-10-28T23:46:18.014Z,15.83
2022-10-28T23:49:11.037Z,15.83
2022-10-28T23:51:50.789Z,15.83
2022-10-28T23:54:30.655Z,15.82
2022-10-28T23:57:10.735Z,15.85
